sensor_id;sensor_type;location;lat;lon;timestamp;P1;durP1;ratioP1;P2;durP2;ratioP2
45848;SDS011;31567;54.600;9.842;2023-05-10T00:03:22;3.28;;;2.97;;
45848;SDS011;31567;54.600;9.842;2023-05-10T00:07:02;3.28;;;2.70;;
45848;SDS011;31567;54.600;9.842;2023-05-10T00:10:42;3.88;;;3.25;;
45848;SDS011;31567;54.600;9.842;2023-05-10T00:14:21;6.50;;;3.75;;
45848;SDS011;31567;54.600;9.842;2023-05-10T00:18:01;3.38;;;3.08;;
45848;SDS011;31567;54.600;9.842;2023-05-10T00:21:40;4.13;;;3.05;;
45848;SDS011;31567;54.600;9.842;2023-05-10T00:25:20;5.80;;;3.60;;
45848;SDS011;31567;54.600;9.842;2023-05-10T00:29:02;5.70;;;3.10;;
45848;SDS011;31567;54.600;9.842;2023-05-10T00:32:42;4.15;;;3.00;;
45848;SDS011;31567;54.600;9.842;2023-05-10T00:36:22;11.18;;;4.35;;
45848;SDS011;31567;54.600;9.842;2023-05-10T00:40:02;5.97;;;3.67;;
45848;SDS011;31567;54.600;9.842;2023-05-10T00:43:41;7.05;;;3.08;;
45848;SDS011;31567;54.600;9.842;2023-05-10T00:47:21;6.50;;;3.67;;
45848;SDS011;31567;54.600;9.842;2023-05-10T00:51:02;4.57;;;3.20;;
45848;SDS011;31567;54.600;9.842;2023-05-10T00:54:42;7.03;;;3.75;;
45848;SDS011;31567;54.600;9.842;2023-05-10T00:58:22;8.02;;;3.60;;
45848;SDS011;31567;54.600;9.842;2023-05-10T01:02:02;4.75;;;3.20;;
45848;SDS011;31567;54.600;9.842;2023-05-10T01:05:42;3.10;;;2.90;;
45848;SDS011;31567;54.600;9.842;2023-05-10T01:09:22;3.38;;;3.08;;
45848;SDS011;31567;54.600;9.842;2023-05-10T01:13:02;4.18;;;3.00;;
45848;SDS011;31567;54.600;9.842;2023-05-10T01:16:42;3.65;;;3.03;;
45848;SDS011;31567;54.600;9.842;2023-05-10T01:20:24;7.00;;;3.78;;
45848;SDS011;31567;54.600;9.842;2023-05-10T01:28:15;4.35;;;3.30;;
45848;SDS011;31567;54.600;9.842;2023-05-10T01:36:31;3.97;;;3.60;;
45848;SDS011;31567;54.600;9.842;2023-05-10T01:40:25;5.82;;;3.47;;
45848;SDS011;31567;54.600;9.842;2023-05-10T01:44:28;3.95;;;3.53;;
45848;SDS011;31567;54.600;9.842;2023-05-10T01:48:14;5.10;;;3.55;;
45848;SDS011;31567;54.600;9.842;2023-05-10T01:51:57;10.82;;;3.80;;
45848;SDS011;31567;54.600;9.842;2023-05-10T01:59:30;5.10;;;3.70;;
45848;SDS011;31567;54.600;9.842;2023-05-10T02:03:15;6.40;;;4.38;;
45848;SDS011;31567;54.600;9.842;2023-05-10T02:06:57;13.32;;;4.43;;
45848;SDS011;31567;54.600;9.842;2023-05-10T02:10:37;5.15;;;4.40;;
45848;SDS011;31567;54.600;9.842;2023-05-10T02:14:18;8.75;;;4.07;;
45848;SDS011;31567;54.600;9.842;2023-05-10T02:17:59;5.78;;;4.05;;
45848;SDS011;31567;54.600;9.842;2023-05-10T02:21:39;6.68;;;4.53;;
45848;SDS011;31567;54.600;9.842;2023-05-10T02:25:20;7.00;;;4.25;;
45848;SDS011;31567;54.600;9.842;2023-05-10T02:29:02;7.97;;;4.13;;
45848;SDS011;31567;54.600;9.842;2023-05-10T02:32:44;6.55;;;4.47;;
45848;SDS011;31567;54.600;9.842;2023-05-10T02:36:24;9.40;;;4.50;;
45848;SDS011;31567;54.600;9.842;2023-05-10T02:40:06;10.23;;;4.40;;
45848;SDS011;31567;54.600;9.842;2023-05-10T02:43:46;7.22;;;4.60;;
45848;SDS011;31567;54.600;9.842;2023-05-10T02:47:29;5.20;;;4.63;;
45848;SDS011;31567;54.600;9.842;2023-05-10T02:51:09;8.90;;;5.05;;
45848;SDS011;31567;54.600;9.842;2023-05-10T02:54:54;7.80;;;5.00;;
45848;SDS011;31567;54.600;9.842;2023-05-10T02:58:35;8.32;;;4.60;;
45848;SDS011;31567;54.600;9.842;2023-05-10T03:02:14;6.80;;;4.80;;
45848;SDS011;31567;54.600;9.842;2023-05-10T03:05:54;9.80;;;5.20;;
45848;SDS011;31567;54.600;9.842;2023-05-10T03:09:34;8.80;;;4.90;;
45848;SDS011;31567;54.600;9.842;2023-05-10T03:13:29;8.68;;;4.70;;
45848;SDS011;31567;54.600;9.842;2023-05-10T03:17:25;7.55;;;4.32;;
45848;SDS011;31567;54.600;9.842;2023-05-10T03:21:10;10.30;;;4.78;;
45848;SDS011;31567;54.600;9.842;2023-05-10T03:24:53;6.40;;;4.50;;
45848;SDS011;31567;54.600;9.842;2023-05-10T03:28:36;6.70;;;4.43;;
45848;SDS011;31567;54.600;9.842;2023-05-10T03:32:16;8.25;;;5.13;;
45848;SDS011;31567;54.600;9.842;2023-05-10T03:35:56;6.53;;;4.68;;
45848;SDS011;31567;54.600;9.842;2023-05-10T03:39:35;5.53;;;4.70;;
45848;SDS011;31567;54.600;9.842;2023-05-10T03:43:15;5.82;;;4.78;;
45848;SDS011;31567;54.600;9.842;2023-05-10T03:46:55;7.47;;;4.43;;
45848;SDS011;31567;54.600;9.842;2023-05-10T03:50:35;5.93;;;4.57;;
45848;SDS011;31567;54.600;9.842;2023-05-10T03:54:15;7.10;;;4.43;;
45848;SDS011;31567;54.600;9.842;2023-05-10T03:57:54;8.93;;;5.10;;
45848;SDS011;31567;54.600;9.842;2023-05-10T04:01:34;8.07;;;4.90;;
45848;SDS011;31567;54.600;9.842;2023-05-10T04:05:14;7.05;;;4.55;;
45848;SDS011;31567;54.600;9.842;2023-05-10T04:08:54;6.75;;;4.65;;
45848;SDS011;31567;54.600;9.842;2023-05-10T04:12:34;6.93;;;4.95;;
45848;SDS011;31567;54.600;9.842;2023-05-10T04:16:13;6.65;;;5.13;;
45848;SDS011;31567;54.600;9.842;2023-05-10T04:19:53;7.78;;;5.22;;
45848;SDS011;31567;54.600;9.842;2023-05-10T04:23:33;10.50;;;5.07;;
45848;SDS011;31567;54.600;9.842;2023-05-10T04:27:13;9.65;;;5.18;;
45848;SDS011;31567;54.600;9.842;2023-05-10T04:30:53;8.32;;;5.13;;
45848;SDS011;31567;54.600;9.842;2023-05-10T04:34:39;10.82;;;4.82;;
45848;SDS011;31567;54.600;9.842;2023-05-10T04:38:18;6.57;;;4.85;;
45848;SDS011;31567;54.600;9.842;2023-05-10T04:41:58;8.55;;;5.43;;
45848;SDS011;31567;54.600;9.842;2023-05-10T04:45:37;6.93;;;4.95;;
45848;SDS011;31567;54.600;9.842;2023-05-10T04:49:17;12.32;;;5.13;;
45848;SDS011;31567;54.600;9.842;2023-05-10T04:52:56;6.40;;;4.97;;
45848;SDS011;31567;54.600;9.842;2023-05-10T04:56:36;6.03;;;5.28;;
45848;SDS011;31567;54.600;9.842;2023-05-10T05:00:16;7.30;;;4.85;;
45848;SDS011;31567;54.600;9.842;2023-05-10T05:03:55;6.03;;;4.40;;
45848;SDS011;31567;54.600;9.842;2023-05-10T05:07:35;5.88;;;5.25;;
45848;SDS011;31567;54.600;9.842;2023-05-10T05:11:14;7.32;;;4.85;;
45848;SDS011;31567;54.600;9.842;2023-05-10T05:14:54;9.45;;;4.70;;
45848;SDS011;31567;54.600;9.842;2023-05-10T05:18:33;6.82;;;4.70;;
45848;SDS011;31567;54.600;9.842;2023-05-10T05:22:13;6.95;;;5.43;;
45848;SDS011;31567;54.600;9.842;2023-05-10T05:25:52;7.93;;;4.68;;
45848;SDS011;31567;54.600;9.842;2023-05-10T05:29:32;8.10;;;5.07;;
45848;SDS011;31567;54.600;9.842;2023-05-10T05:33:15;4.93;;;4.43;;
45848;SDS011;31567;54.600;9.842;2023-05-10T05:36:54;6.90;;;4.90;;
45848;SDS011;31567;54.600;9.842;2023-05-10T05:40:34;7.20;;;4.80;;
45848;SDS011;31567;54.600;9.842;2023-05-10T05:44:14;5.88;;;4.45;;
45848;SDS011;31567;54.600;9.842;2023-05-10T05:47:53;5.10;;;4.18;;
45848;SDS011;31567;54.600;9.842;2023-05-10T05:51:33;5.00;;;4.50;;
45848;SDS011;31567;54.600;9.842;2023-05-10T05:55:13;5.88;;;4.38;;
45848;SDS011;31567;54.600;9.842;2023-05-10T05:58:53;8.48;;;4.30;;
45848;SDS011;31567;54.600;9.842;2023-05-10T06:02:32;5.32;;;4.68;;
45848;SDS011;31567;54.600;9.842;2023-05-10T06:06:12;5.28;;;4.78;;
45848;SDS011;31567;54.600;9.842;2023-05-10T06:09:52;5.00;;;4.50;;
45848;SDS011;31567;54.600;9.842;2023-05-10T06:13:31;7.93;;;4.72;;
45848;SDS011;31567;54.600;9.842;2023-05-10T06:17:12;6.40;;;4.25;;
45848;SDS011;31567;54.600;9.842;2023-05-10T06:20:51;6.82;;;4.75;;
45848;SDS011;31567;54.600;9.842;2023-05-10T06:24:31;4.40;;;4.00;;
45848;SDS011;31567;54.600;9.842;2023-05-10T06:28:10;4.97;;;4.35;;
45848;SDS011;31567;54.600;9.842;2023-05-10T06:31:50;5.88;;;4.38;;
45848;SDS011;31567;54.600;9.842;2023-05-10T06:35:30;4.78;;;4.38;;
45848;SDS011;31567;54.600;9.842;2023-05-10T06:39:12;4.93;;;4.32;;
45848;SDS011;31567;54.600;9.842;2023-05-10T06:42:51;5.18;;;4.65;;
45848;SDS011;31567;54.600;9.842;2023-05-10T06:46:31;5.32;;;4.88;;
45848;SDS011;31567;54.600;9.842;2023-05-10T06:50:11;4.68;;;4.07;;
45848;SDS011;31567;54.600;9.842;2023-05-10T06:53:51;5.75;;;4.32;;
45848;SDS011;31567;54.600;9.842;2023-05-10T06:57:31;5.00;;;4.57;;
45848;SDS011;31567;54.600;9.842;2023-05-10T07:01:10;5.05;;;4.50;;
45848;SDS011;31567;54.600;9.842;2023-05-10T07:04:50;5.55;;;4.90;;
45848;SDS011;31567;54.600;9.842;2023-05-10T07:08:30;5.85;;;4.90;;
45848;SDS011;31567;54.600;9.842;2023-05-10T07:12:10;6.75;;;4.70;;
45848;SDS011;31567;54.600;9.842;2023-05-10T07:15:50;5.88;;;5.28;;
45848;SDS011;31567;54.600;9.842;2023-05-10T07:19:29;8.10;;;4.20;;
45848;SDS011;31567;54.600;9.842;2023-05-10T07:23:11;7.22;;;4.65;;
45848;SDS011;31567;54.600;9.842;2023-05-10T07:26:51;6.20;;;5.15;;
45848;SDS011;31567;54.600;9.842;2023-05-10T07:30:30;5.93;;;4.90;;
45848;SDS011;31567;54.600;9.842;2023-05-10T07:34:10;6.03;;;5.50;;
45848;SDS011;31567;54.600;9.842;2023-05-10T07:37:49;5.15;;;4.60;;
45848;SDS011;31567;54.600;9.842;2023-05-10T07:41:29;5.78;;;4.80;;
45848;SDS011;31567;54.600;9.842;2023-05-10T07:45:09;6.22;;;4.95;;
45848;SDS011;31567;54.600;9.842;2023-05-10T07:48:48;5.18;;;4.50;;
45848;SDS011;31567;54.600;9.842;2023-05-10T07:52:28;8.45;;;5.22;;
45848;SDS011;31567;54.600;9.842;2023-05-10T07:56:24;5.28;;;4.75;;
45848;SDS011;31567;54.600;9.842;2023-05-10T08:00:06;6.40;;;5.07;;
45848;SDS011;31567;54.600;9.842;2023-05-10T08:03:46;7.05;;;5.05;;
45848;SDS011;31567;54.600;9.842;2023-05-10T08:07:26;6.22;;;4.78;;
45848;SDS011;31567;54.600;9.842;2023-05-10T08:11:05;7.35;;;4.90;;
45848;SDS011;31567;54.600;9.842;2023-05-10T08:14:45;12.05;;;5.35;;
45848;SDS011;31567;54.600;9.842;2023-05-10T08:18:24;6.38;;;4.80;;
45848;SDS011;31567;54.600;9.842;2023-05-10T08:22:04;5.50;;;4.72;;
45848;SDS011;31567;54.600;9.842;2023-05-10T08:25:44;6.18;;;4.47;;
45848;SDS011;31567;54.600;9.842;2023-05-10T08:29:23;5.30;;;4.80;;
45848;SDS011;31567;54.600;9.842;2023-05-10T08:33:03;8.70;;;5.07;;
45848;SDS011;31567;54.600;9.842;2023-05-10T08:36:43;7.63;;;5.15;;
45848;SDS011;31567;54.600;9.842;2023-05-10T08:40:22;6.43;;;4.78;;
45848;SDS011;31567;54.600;9.842;2023-05-10T08:44:04;5.88;;;5.05;;
45848;SDS011;31567;54.600;9.842;2023-05-10T08:47:44;5.78;;;5.00;;
45848;SDS011;31567;54.600;9.842;2023-05-10T08:51:25;6.10;;;5.07;;
45848;SDS011;31567;54.600;9.842;2023-05-10T08:55:06;5.95;;;5.30;;
45848;SDS011;31567;54.600;9.842;2023-05-10T08:58:46;5.40;;;4.60;;
45848;SDS011;31567;54.600;9.842;2023-05-10T09:02:27;6.55;;;5.22;;
45848;SDS011;31567;54.600;9.842;2023-05-10T09:06:07;5.97;;;5.05;;
45848;SDS011;31567;54.600;9.842;2023-05-10T09:09:47;5.72;;;5.15;;
45848;SDS011;31567;54.600;9.842;2023-05-10T09:13:27;7.38;;;4.75;;
45848;SDS011;31567;54.600;9.842;2023-05-10T09:17:07;4.82;;;4.45;;
45848;SDS011;31567;54.600;9.842;2023-05-10T09:20:48;5.70;;;5.05;;
45848;SDS011;31567;54.600;9.842;2023-05-10T09:24:29;7.53;;;4.95;;
45848;SDS011;31567;54.600;9.842;2023-05-10T09:28:09;5.53;;;5.03;;
45848;SDS011;31567;54.600;9.842;2023-05-10T09:31:50;5.45;;;4.97;;
45848;SDS011;31567;54.600;9.842;2023-05-10T09:35:31;6.82;;;5.28;;
45848;SDS011;31567;54.600;9.842;2023-05-10T09:39:11;5.95;;;5.45;;
45848;SDS011;31567;54.600;9.842;2023-05-10T09:42:52;5.18;;;4.60;;
45848;SDS011;31567;54.600;9.842;2023-05-10T09:46:35;6.82;;;5.18;;
45848;SDS011;31567;54.600;9.842;2023-05-10T09:50:15;5.60;;;4.85;;
45848;SDS011;31567;54.600;9.842;2023-05-10T09:54:12;5.70;;;4.90;;
45848;SDS011;31567;54.600;9.842;2023-05-10T09:57:58;6.15;;;5.28;;
45848;SDS011;31567;54.600;9.842;2023-05-10T10:01:39;5.80;;;4.95;;
45848;SDS011;31567;54.600;9.842;2023-05-10T10:05:20;5.20;;;4.80;;
45848;SDS011;31567;54.600;9.842;2023-05-10T10:08:59;5.82;;;5.32;;
45848;SDS011;31567;54.600;9.842;2023-05-10T10:12:40;7.93;;;5.22;;
45848;SDS011;31567;54.600;9.842;2023-05-10T10:16:20;7.65;;;5.70;;
45848;SDS011;31567;54.600;9.842;2023-05-10T10:20:00;6.30;;;5.30;;
45848;SDS011;31567;54.600;9.842;2023-05-10T10:23:41;5.88;;;5.13;;
45848;SDS011;31567;54.600;9.842;2023-05-10T10:27:24;6.13;;;4.95;;
45848;SDS011;31567;54.600;9.842;2023-05-10T10:35:18;5.72;;;5.22;;
45848;SDS011;31567;54.600;9.842;2023-05-10T10:38:58;6.63;;;5.63;;
45848;SDS011;31567;54.600;9.842;2023-05-10T10:42:48;6.60;;;5.00;;
45848;SDS011;31567;54.600;9.842;2023-05-10T10:46:32;5.15;;;4.70;;
45848;SDS011;31567;54.600;9.842;2023-05-10T10:50:13;6.07;;;5.47;;
45848;SDS011;31567;54.600;9.842;2023-05-10T10:53:55;6.00;;;5.50;;
45848;SDS011;31567;54.600;9.842;2023-05-10T10:57:54;6.18;;;5.60;;
45848;SDS011;31567;54.600;9.842;2023-05-10T11:01:41;7.00;;;5.60;;
45848;SDS011;31567;54.600;9.842;2023-05-10T11:09:11;7.22;;;5.10;;
45848;SDS011;31567;54.600;9.842;2023-05-10T11:13:01;6.85;;;4.95;;
45848;SDS011;31567;54.600;9.842;2023-05-10T11:16:43;6.63;;;5.03;;
45848;SDS011;31567;54.600;9.842;2023-05-10T11:20:23;6.13;;;4.85;;
45848;SDS011;31567;54.600;9.842;2023-05-10T11:24:18;5.85;;;5.00;;
45848;SDS011;31567;54.600;9.842;2023-05-10T11:27:59;6.18;;;5.45;;
45848;SDS011;31567;54.600;9.842;2023-05-10T11:31:43;6.85;;;4.75;;
45848;SDS011;31567;54.600;9.842;2023-05-10T11:35:27;5.07;;;4.13;;
45848;SDS011;31567;54.600;9.842;2023-05-10T11:39:07;9.20;;;4.50;;
45848;SDS011;31567;54.600;9.842;2023-05-10T11:42:46;7.68;;;4.78;;
45848;SDS011;31567;54.600;9.842;2023-05-10T11:46:26;6.68;;;4.68;;
45848;SDS011;31567;54.600;9.842;2023-05-10T11:50:07;5.63;;;4.78;;
45848;SDS011;31567;54.600;9.842;2023-05-10T11:53:47;7.93;;;5.38;;
45848;SDS011;31567;54.600;9.842;2023-05-10T11:57:27;6.20;;;4.78;;
45848;SDS011;31567;54.600;9.842;2023-05-10T12:01:07;6.13;;;5.20;;
45848;SDS011;31567;54.600;9.842;2023-05-10T12:04:49;5.35;;;4.85;;
45848;SDS011;31567;54.600;9.842;2023-05-10T12:08:30;6.80;;;5.20;;
45848;SDS011;31567;54.600;9.842;2023-05-10T12:12:16;7.47;;;4.72;;
45848;SDS011;31567;54.600;9.842;2023-05-10T12:15:59;7.63;;;5.20;;
45848;SDS011;31567;54.600;9.842;2023-05-10T12:19:39;5.60;;;4.55;;
45848;SDS011;31567;54.600;9.842;2023-05-10T12:23:20;6.90;;;4.75;;
45848;SDS011;31567;54.600;9.842;2023-05-10T12:26:59;6.00;;;5.22;;
45848;SDS011;31567;54.600;9.842;2023-05-10T12:30:44;5.15;;;4.68;;
45848;SDS011;31567;54.600;9.842;2023-05-10T12:34:30;5.53;;;5.03;;
45848;SDS011;31567;54.600;9.842;2023-05-10T12:38:26;7.70;;;5.28;;
45848;SDS011;31567;54.600;9.842;2023-05-10T12:42:14;9.48;;;5.50;;
45848;SDS011;31567;54.600;9.842;2023-05-10T12:45:54;9.25;;;5.65;;
45848;SDS011;31567;54.600;9.842;2023-05-10T12:49:33;7.43;;;6.57;;
45848;SDS011;31567;54.600;9.842;2023-05-10T12:53:13;7.18;;;6.40;;
45848;SDS011;31567;54.600;9.842;2023-05-10T12:56:54;6.05;;;5.45;;
45848;SDS011;31567;54.600;9.842;2023-05-10T13:00:34;10.20;;;8.35;;
45848;SDS011;31567;54.600;9.842;2023-05-10T13:04:13;11.48;;;10.00;;
45848;SDS011;31567;54.600;9.842;2023-05-10T13:07:53;13.07;;;11.05;;
45848;SDS011;31567;54.600;9.842;2023-05-10T13:11:32;12.18;;;10.77;;
45848;SDS011;31567;54.600;9.842;2023-05-10T13:15:12;13.50;;;12.20;;
45848;SDS011;31567;54.600;9.842;2023-05-10T13:18:52;12.93;;;11.75;;
45848;SDS011;31567;54.600;9.842;2023-05-10T13:22:31;12.65;;;11.45;;
45848;SDS011;31567;54.600;9.842;2023-05-10T13:26:11;14.18;;;12.73;;
45848;SDS011;31567;54.600;9.842;2023-05-10T13:29:50;13.93;;;12.73;;
45848;SDS011;31567;54.600;9.842;2023-05-10T13:33:30;14.43;;;12.93;;
45848;SDS011;31567;54.600;9.842;2023-05-10T13:37:09;14.27;;;12.93;;
45848;SDS011;31567;54.600;9.842;2023-05-10T13:40:49;13.93;;;12.63;;
45848;SDS011;31567;54.600;9.842;2023-05-10T13:44:31;14.13;;;12.80;;
45848;SDS011;31567;54.600;9.842;2023-05-10T13:48:12;14.68;;;13.48;;
45848;SDS011;31567;54.600;9.842;2023-05-10T13:51:52;15.15;;;13.65;;
45848;SDS011;31567;54.600;9.842;2023-05-10T13:55:31;15.60;;;14.20;;
45848;SDS011;31567;54.600;9.842;2023-05-10T13:59:11;14.50;;;13.07;;
45848;SDS011;31567;54.600;9.842;2023-05-10T14:02:50;14.85;;;13.38;;
45848;SDS011;31567;54.600;9.842;2023-05-10T14:06:30;13.85;;;12.43;;
45848;SDS011;31567;54.600;9.842;2023-05-10T14:10:10;13.43;;;12.23;;
45848;SDS011;31567;54.600;9.842;2023-05-10T14:13:49;13.65;;;12.25;;
45848;SDS011;31567;54.600;9.842;2023-05-10T14:17:29;12.93;;;11.70;;
45848;SDS011;31567;54.600;9.842;2023-05-10T14:21:08;13.07;;;11.88;;
45848;SDS011;31567;54.600;9.842;2023-05-10T14:24:48;12.88;;;11.55;;
45848;SDS011;31567;54.600;9.842;2023-05-10T14:28:27;12.60;;;11.40;;
45848;SDS011;31567;54.600;9.842;2023-05-10T14:32:07;11.90;;;10.88;;
45848;SDS011;31567;54.600;9.842;2023-05-10T14:35:47;12.70;;;11.52;;
45848;SDS011;31567;54.600;9.842;2023-05-10T14:39:27;13.43;;;12.15;;
45848;SDS011;31567;54.600;9.842;2023-05-10T14:43:09;13.23;;;12.02;;
45848;SDS011;31567;54.600;9.842;2023-05-10T14:46:48;11.85;;;10.85;;
45848;SDS011;31567;54.600;9.842;2023-05-10T14:50:28;12.88;;;11.65;;
45848;SDS011;31567;54.600;9.842;2023-05-10T14:54:08;13.63;;;12.35;;
45848;SDS011;31567;54.600;9.842;2023-05-10T14:57:47;14.52;;;13.25;;
45848;SDS011;31567;54.600;9.842;2023-05-10T15:01:29;13.77;;;12.57;;
45848;SDS011;31567;54.600;9.842;2023-05-10T15:05:10;13.95;;;12.52;;
45848;SDS011;31567;54.600;9.842;2023-05-10T15:08:50;14.05;;;12.60;;
45848;SDS011;31567;54.600;9.842;2023-05-10T15:12:29;15.73;;;12.88;;
45848;SDS011;31567;54.600;9.842;2023-05-10T15:16:09;15.63;;;14.10;;
45848;SDS011;31567;54.600;9.842;2023-05-10T15:19:49;14.88;;;13.48;;
45848;SDS011;31567;54.600;9.842;2023-05-10T15:23:29;15.90;;;14.52;;
45848;SDS011;31567;54.600;9.842;2023-05-10T15:27:08;14.45;;;13.18;;
45848;SDS011;31567;54.600;9.842;2023-05-10T15:30:48;13.45;;;12.25;;
45848;SDS011;31567;54.600;9.842;2023-05-10T15:34:28;14.32;;;12.75;;
45848;SDS011;31567;54.600;9.842;2023-05-10T15:38:08;13.60;;;12.30;;
45848;SDS011;31567;54.600;9.842;2023-05-10T15:41:48;14.90;;;13.52;;
45848;SDS011;31567;54.600;9.842;2023-05-10T15:45:28;13.65;;;12.27;;
45848;SDS011;31567;54.600;9.842;2023-05-10T15:49:07;16.60;;;13.98;;
45848;SDS011;31567;54.600;9.842;2023-05-10T15:52:47;14.02;;;12.93;;
45848;SDS011;31567;54.600;9.842;2023-05-10T15:56:26;12.52;;;11.23;;
45848;SDS011;31567;54.600;9.842;2023-05-10T16:00:07;9.95;;;9.05;;
45848;SDS011;31567;54.600;9.842;2023-05-10T16:03:48;8.57;;;7.75;;
45848;SDS011;31567;54.600;9.842;2023-05-10T16:07:27;7.95;;;7.25;;
45848;SDS011;31567;54.600;9.842;2023-05-10T16:11:07;7.13;;;6.60;;
45848;SDS011;31567;54.600;9.842;2023-05-10T16:14:47;8.50;;;7.82;;
45848;SDS011;31567;54.600;9.842;2023-05-10T16:18:26;8.38;;;7.13;;
45848;SDS011;31567;54.600;9.842;2023-05-10T16:22:06;9.10;;;8.30;;
45848;SDS011;31567;54.600;9.842;2023-05-10T16:25:45;7.95;;;7.35;;
45848;SDS011;31567;54.600;9.842;2023-05-10T16:29:25;9.48;;;8.77;;
45848;SDS011;31567;54.600;9.842;2023-05-10T16:33:04;6.70;;;6.20;;
45848;SDS011;31567;54.600;9.842;2023-05-10T16:36:44;6.45;;;5.95;;
45848;SDS011;31567;54.600;9.842;2023-05-10T16:40:24;5.60;;;5.20;;
45848;SDS011;31567;54.600;9.842;2023-05-10T16:44:04;5.10;;;4.70;;
45848;SDS011;31567;54.600;9.842;2023-05-10T16:47:43;5.70;;;4.88;;
45848;SDS011;31567;54.600;9.842;2023-05-10T16:51:23;5.10;;;4.70;;
45848;SDS011;31567;54.600;9.842;2023-05-10T16:55:02;4.40;;;4.00;;
45848;SDS011;31567;54.600;9.842;2023-05-10T16:58:43;4.70;;;4.40;;
45848;SDS011;31567;54.600;9.842;2023-05-10T17:02:22;4.30;;;4.00;;
45848;SDS011;31567;54.600;9.842;2023-05-10T17:06:03;4.53;;;4.22;;
45848;SDS011;31567;54.600;9.842;2023-05-10T17:09:43;4.25;;;3.97;;
45848;SDS011;31567;54.600;9.842;2023-05-10T17:13:24;4.68;;;4.28;;
45848;SDS011;31567;54.600;9.842;2023-05-10T17:17:04;4.68;;;4.43;;
45848;SDS011;31567;54.600;9.842;2023-05-10T17:20:44;4.43;;;4.20;;
45848;SDS011;31567;54.600;9.842;2023-05-10T17:24:24;5.38;;;4.97;;
45848;SDS011;31567;54.600;9.842;2023-05-10T17:28:07;5.95;;;5.55;;
45848;SDS011;31567;54.600;9.842;2023-05-10T17:31:47;5.60;;;5.22;;
45848;SDS011;31567;54.600;9.842;2023-05-10T17:35:26;5.03;;;4.65;;
45848;SDS011;31567;54.600;9.842;2023-05-10T17:39:06;5.45;;;5.15;;
45848;SDS011;31567;54.600;9.842;2023-05-10T17:42:45;5.97;;;5.57;;
45848;SDS011;31567;54.600;9.842;2023-05-10T17:46:25;6.05;;;5.75;;
45848;SDS011;31567;54.600;9.842;2023-05-10T17:50:05;6.85;;;6.45;;
45848;SDS011;31567;54.600;9.842;2023-05-10T17:53:45;6.28;;;5.88;;
45848;SDS011;31567;54.600;9.842;2023-05-10T17:57:25;6.50;;;6.10;;
45848;SDS011;31567;54.600;9.842;2023-05-10T18:01:06;6.50;;;6.10;;
45848;SDS011;31567;54.600;9.842;2023-05-10T18:04:45;7.00;;;6.60;;
45848;SDS011;31567;54.600;9.842;2023-05-10T18:08:27;7.25;;;6.85;;
45848;SDS011;31567;54.600;9.842;2023-05-10T18:12:08;7.80;;;7.30;;
45848;SDS011;31567;54.600;9.842;2023-05-10T18:15:47;7.72;;;7.22;;
45848;SDS011;31567;54.600;9.842;2023-05-10T18:19:27;7.72;;;7.22;;
45848;SDS011;31567;54.600;9.842;2023-05-10T18:23:07;8.55;;;7.85;;
45848;SDS011;31567;54.600;9.842;2023-05-10T18:26:46;7.97;;;7.38;;
45848;SDS011;31567;54.600;9.842;2023-05-10T18:30:26;9.05;;;8.45;;
45848;SDS011;31567;54.600;9.842;2023-05-10T18:34:06;8.82;;;8.23;;
45848;SDS011;31567;54.600;9.842;2023-05-10T18:37:45;9.15;;;8.55;;
45848;SDS011;31567;54.600;9.842;2023-05-10T18:41:26;9.63;;;8.88;;
45848;SDS011;31567;54.600;9.842;2023-05-10T18:45:06;9.43;;;8.65;;
45848;SDS011;31567;54.600;9.842;2023-05-10T18:48:46;9.40;;;8.70;;
45848;SDS011;31567;54.600;9.842;2023-05-10T18:52:25;9.50;;;8.80;;
45848;SDS011;31567;54.600;9.842;2023-05-10T18:56:05;9.45;;;8.75;;
45848;SDS011;31567;54.600;9.842;2023-05-10T18:59:45;10.27;;;9.57;;
45848;SDS011;31567;54.600;9.842;2023-05-10T19:03:24;10.30;;;9.50;;
45848;SDS011;31567;54.600;9.842;2023-05-10T19:07:04;10.40;;;9.52;;
45848;SDS011;31567;54.600;9.842;2023-05-10T19:10:44;9.88;;;9.18;;
45848;SDS011;31567;54.600;9.842;2023-05-10T19:14:23;9.43;;;8.73;;
45848;SDS011;31567;54.600;9.842;2023-05-10T19:18:03;9.50;;;8.80;;
45848;SDS011;31567;54.600;9.842;2023-05-10T19:21:43;9.98;;;9.27;;
45848;SDS011;31567;54.600;9.842;2023-05-10T19:25:23;10.20;;;9.40;;
45848;SDS011;31567;54.600;9.842;2023-05-10T19:29:07;10.25;;;9.35;;
45848;SDS011;31567;54.600;9.842;2023-05-10T19:32:47;10.90;;;9.95;;
45848;SDS011;31567;54.600;9.842;2023-05-10T19:36:26;11.40;;;10.48;;
45848;SDS011;31567;54.600;9.842;2023-05-10T19:40:06;10.60;;;9.75;;
45848;SDS011;31567;54.600;9.842;2023-05-10T19:43:46;9.45;;;8.75;;
45848;SDS011;31567;54.600;9.842;2023-05-10T19:47:26;7.90;;;7.20;;
45848;SDS011;31567;54.600;9.842;2023-05-10T19:51:05;8.98;;;8.27;;
45848;SDS011;31567;54.600;9.842;2023-05-10T19:54:45;8.70;;;8.00;;
45848;SDS011;31567;54.600;9.842;2023-05-10T19:58:24;8.93;;;8.23;;
45848;SDS011;31567;54.600;9.842;2023-05-10T20:02:04;9.15;;;8.35;;
45848;SDS011;31567;54.600;9.842;2023-05-10T20:05:45;9.30;;;8.45;;
45848;SDS011;31567;54.600;9.842;2023-05-10T20:09:24;9.52;;;8.73;;
45848;SDS011;31567;54.600;9.842;2023-05-10T20:13:04;10.20;;;9.30;;
45848;SDS011;31567;54.600;9.842;2023-05-10T20:16:43;10.20;;;9.30;;
45848;SDS011;31567;54.600;9.842;2023-05-10T20:20:23;10.38;;;9.48;;
45848;SDS011;31567;54.600;9.842;2023-05-10T20:24:03;10.98;;;9.98;;
45848;SDS011;31567;54.600;9.842;2023-05-10T20:27:42;10.60;;;9.60;;
45848;SDS011;31567;54.600;9.842;2023-05-10T20:31:22;10.98;;;9.98;;
45848;SDS011;31567;54.600;9.842;2023-05-10T20:35:02;9.60;;;8.75;;
45848;SDS011;31567;54.600;9.842;2023-05-10T20:38:42;9.55;;;8.65;;
45848;SDS011;31567;54.600;9.842;2023-05-10T20:42:21;9.18;;;8.27;;
45848;SDS011;31567;54.600;9.842;2023-05-10T20:46:01;9.32;;;8.30;;
45848;SDS011;31567;54.600;9.842;2023-05-10T20:49:43;8.70;;;7.90;;
45848;SDS011;31567;54.600;9.842;2023-05-10T20:53:22;9.20;;;8.30;;
45848;SDS011;31567;54.600;9.842;2023-05-10T20:57:02;10.07;;;9.07;;
45848;SDS011;31567;54.600;9.842;2023-05-10T21:00:41;10.95;;;9.85;;
45848;SDS011;31567;54.600;9.842;2023-05-10T21:04:21;11.60;;;10.45;;
45848;SDS011;31567;54.600;9.842;2023-05-10T21:08:00;11.38;;;10.18;;
45848;SDS011;31567;54.600;9.842;2023-05-10T21:11:40;10.40;;;9.40;;
45848;SDS011;31567;54.600;9.842;2023-05-10T21:15:20;9.55;;;8.65;;
45848;SDS011;31567;54.600;9.842;2023-05-10T21:19:00;9.90;;;9.00;;
45848;SDS011;31567;54.600;9.842;2023-05-10T21:22:40;10.70;;;9.70;;
45848;SDS011;31567;54.600;9.842;2023-05-10T21:26:20;11.40;;;10.30;;
45848;SDS011;31567;54.600;9.842;2023-05-10T21:30:00;11.55;;;10.55;;
45848;SDS011;31567;54.600;9.842;2023-05-10T21:33:39;12.07;;;10.88;;
45848;SDS011;31567;54.600;9.842;2023-05-10T21:37:19;12.88;;;11.65;;
45848;SDS011;31567;54.600;9.842;2023-05-10T21:40:59;12.48;;;11.18;;
45848;SDS011;31567;54.600;9.842;2023-05-10T21:44:38;12.88;;;11.68;;
45848;SDS011;31567;54.600;9.842;2023-05-10T21:48:18;12.57;;;11.27;;
45848;SDS011;31567;54.600;9.842;2023-05-10T21:51:57;13.57;;;12.18;;
45848;SDS011;31567;54.600;9.842;2023-05-10T21:55:37;13.55;;;12.10;;
45848;SDS011;31567;54.600;9.842;2023-05-10T21:59:17;14.88;;;12.23;;
45848;SDS011;31567;54.600;9.842;2023-05-10T22:02:57;13.02;;;11.23;;
45848;SDS011;31567;54.600;9.842;2023-05-10T22:06:36;13.32;;;11.88;;
45848;SDS011;31567;54.600;9.842;2023-05-10T22:10:16;14.80;;;12.27;;
45848;SDS011;31567;54.600;9.842;2023-05-10T22:13:55;15.65;;;13.30;;
45848;SDS011;31567;54.600;9.842;2023-05-10T22:17:36;15.55;;;13.10;;
45848;SDS011;31567;54.600;9.842;2023-05-10T22:21:17;14.85;;;12.70;;